sensor_id;sensor_type;location;lat;lon;timestamp;P1;durP1;ratioP1;P2;durP2;ratioP2
22441;SDS011;11388;54.456;9.752;2023-03-23T00:00:31;10.65;;;9.65;;
22441;SDS011;11388;54.456;9.752;2023-03-23T00:03:05;10.32;;;9.32;;
22441;SDS011;11388;54.456;9.752;2023-03-23T00:05:34;10.38;;;9.38;;
22441;SDS011;11388;54.456;9.752;2023-03-23T00:08:03;10.68;;;9.68;;
22441;SDS011;11388;54.456;9.752;2023-03-23T00:10:29;10.20;;;9.30;;
22441;SDS011;11388;54.456;9.752;2023-03-23T00:13:00;10.52;;;9.43;;
22441;SDS011;11388;54.456;9.752;2023-03-23T00:15:27;10.82;;;9.80;;
22441;SDS011;11388;54.456;9.752;2023-03-23T00:17:58;12.38;;;10.43;;
22441;SDS011;11388;54.456;9.752;2023-03-23T00:20:27;10.98;;;9.93;;
22441;SDS011;11388;54.456;9.752;2023-03-23T00:22:57;10.13;;;9.13;;
22441;SDS011;11388;54.456;9.752;2023-03-23T00:25:25;10.82;;;9.73;;
22441;SDS011;11388;54.456;9.752;2023-03-23T00:27:53;10.23;;;9.23;;
22441;SDS011;11388;54.456;9.752;2023-03-23T00:30:22;10.30;;;9.30;;
22441;SDS011;11388;54.456;9.752;2023-03-23T00:32:47;10.77;;;9.70;;
22441;SDS011;11388;54.456;9.752;2023-03-23T00:35:15;10.50;;;9.43;;
22441;SDS011;11388;54.456;9.752;2023-03-23T00:37:42;10.48;;;9.38;;
22441;SDS011;11388;54.456;9.752;2023-03-23T00:40:09;10.80;;;9.70;;
22441;SDS011;11388;54.456;9.752;2023-03-23T00:42:37;10.27;;;9.27;;
22441;SDS011;11388;54.456;9.752;2023-03-23T00:45:06;10.27;;;9.27;;
22441;SDS011;11388;54.456;9.752;2023-03-23T00:47:38;10.25;;;9.13;;
22441;SDS011;11388;54.456;9.752;2023-03-23T00:50:05;11.55;;;9.93;;
22441;SDS011;11388;54.456;9.752;2023-03-23T00:52:32;9.75;;;8.85;;
22441;SDS011;11388;54.456;9.752;2023-03-23T00:55:09;9.35;;;8.45;;
22441;SDS011;11388;54.456;9.752;2023-03-23T00:57:40;9.90;;;8.15;;
22441;SDS011;11388;54.456;9.752;2023-03-23T01:00:06;9.18;;;8.27;;
22441;SDS011;11388;54.456;9.752;2023-03-23T01:02:36;7.78;;;7.07;;
22441;SDS011;11388;54.456;9.752;2023-03-23T01:05:05;8.80;;;7.97;;
22441;SDS011;11388;54.456;9.752;2023-03-23T01:07:31;8.07;;;7.20;;
22441;SDS011;11388;54.456;9.752;2023-03-23T01:09:57;7.20;;;6.50;;
22441;SDS011;11388;54.456;9.752;2023-03-23T01:12:25;7.70;;;6.90;;
22441;SDS011;11388;54.456;9.752;2023-03-23T01:14:51;7.13;;;6.30;;
22441;SDS011;11388;54.456;9.752;2023-03-23T01:17:17;9.20;;;6.82;;
22441;SDS011;11388;54.456;9.752;2023-03-23T01:19:43;7.70;;;6.72;;
22441;SDS011;11388;54.456;9.752;2023-03-23T01:22:09;7.07;;;6.40;;
22441;SDS011;11388;54.456;9.752;2023-03-23T01:24:35;8.30;;;5.97;;
22441;SDS011;11388;54.456;9.752;2023-03-23T01:27:01;6.65;;;5.95;;
22441;SDS011;11388;54.456;9.752;2023-03-23T01:29:31;6.20;;;5.60;;
22441;SDS011;11388;54.456;9.752;2023-03-23T01:31:58;7.70;;;5.80;;
22441;SDS011;11388;54.456;9.752;2023-03-23T01:34:24;5.43;;;4.90;;
22441;SDS011;11388;54.456;9.752;2023-03-23T01:36:50;5.63;;;4.70;;
22441;SDS011;11388;54.456;9.752;2023-03-23T01:39:16;4.45;;;4.00;;
22441;SDS011;11388;54.456;9.752;2023-03-23T01:41:41;5.60;;;4.18;;
22441;SDS011;11388;54.456;9.752;2023-03-23T01:45:06;5.10;;;3.95;;
22441;SDS011;11388;54.456;9.752;2023-03-23T01:46:56;5.10;;;3.83;;
22441;SDS011;11388;54.456;9.752;2023-03-23T01:49:35;4.97;;;3.33;;
22441;SDS011;11388;54.456;9.752;2023-03-23T01:55:39;4.03;;;3.00;;
22441;SDS011;11388;54.456;9.752;2023-03-23T01:58:56;3.25;;;2.17;;
22441;SDS011;11388;54.456;9.752;2023-03-23T02:01:25;3.08;;;2.15;;
22441;SDS011;11388;54.456;9.752;2023-03-23T02:03:55;2.67;;;1.95;;
22441;SDS011;11388;54.456;9.752;2023-03-23T02:06:22;2.83;;;1.80;;
22441;SDS011;11388;54.456;9.752;2023-03-23T02:08:48;2.95;;;1.77;;
22441;SDS011;11388;54.456;9.752;2023-03-23T02:11:15;3.78;;;1.80;;
22441;SDS011;11388;54.456;9.752;2023-03-23T02:13:43;2.97;;;1.42;;
22441;SDS011;11388;54.456;9.752;2023-03-23T02:19:31;4.30;;;1.30;;
22441;SDS011;11388;54.456;9.752;2023-03-23T02:22:43;4.03;;;1.17;;
22441;SDS011;11388;54.456;9.752;2023-03-23T02:28:09;2.80;;;1.40;;
22441;SDS011;11388;54.456;9.752;2023-03-23T02:33:52;3.20;;;1.30;;
22441;SDS011;11388;54.456;9.752;2023-03-23T02:36:28;3.10;;;1.50;;
22441;SDS011;11388;54.456;9.752;2023-03-23T02:39:05;3.67;;;1.92;;
22441;SDS011;11388;54.456;9.752;2023-03-23T02:44:30;4.43;;;1.90;;
22441;SDS011;11388;54.456;9.752;2023-03-23T02:46:59;3.42;;;2.05;;
22441;SDS011;11388;54.456;9.752;2023-03-23T02:49:27;2.60;;;1.75;;
22441;SDS011;11388;54.456;9.752;2023-03-23T02:51:57;3.60;;;2.00;;
22441;SDS011;11388;54.456;9.752;2023-03-23T02:54:30;3.03;;;2.20;;
22441;SDS011;11388;54.456;9.752;2023-03-23T02:57:13;4.15;;;2.55;;
22441;SDS011;11388;54.456;9.752;2023-03-23T02:59:39;4.25;;;2.92;;
22441;SDS011;11388;54.456;9.752;2023-03-23T03:04:40;4.93;;;3.42;;
22441;SDS011;11388;54.456;9.752;2023-03-23T03:09:56;4.95;;;3.75;;
22441;SDS011;11388;54.456;9.752;2023-03-23T03:18:01;6.10;;;4.40;;
22441;SDS011;11388;54.456;9.752;2023-03-23T03:20:32;4.97;;;3.97;;
22441;SDS011;11388;54.456;9.752;2023-03-23T03:23:03;5.35;;;3.90;;
22441;SDS011;11388;54.456;9.752;2023-03-23T03:25:34;4.63;;;3.95;;
22441;SDS011;11388;54.456;9.752;2023-03-23T03:28:05;4.95;;;3.85;;
22441;SDS011;11388;54.456;9.752;2023-03-23T03:30:31;4.88;;;3.85;;
22441;SDS011;11388;54.456;9.752;2023-03-23T03:33:00;5.95;;;3.80;;
22441;SDS011;11388;54.456;9.752;2023-03-23T03:35:28;5.15;;;4.10;;
22441;SDS011;11388;54.456;9.752;2023-03-23T03:37:55;4.18;;;3.53;;
22441;SDS011;11388;54.456;9.752;2023-03-23T03:40:23;4.68;;;3.72;;
22441;SDS011;11388;54.456;9.752;2023-03-23T03:42:51;3.92;;;3.25;;
22441;SDS011;11388;54.456;9.752;2023-03-23T03:46:01;4.05;;;2.90;;
22441;SDS011;11388;54.456;9.752;2023-03-23T03:48:32;4.28;;;2.65;;
22441;SDS011;11388;54.456;9.752;2023-03-23T03:51:00;4.07;;;2.83;;
22441;SDS011;11388;54.456;9.752;2023-03-23T03:53:31;3.63;;;2.70;;
22441;SDS011;11388;54.456;9.752;2023-03-23T03:56:02;4.75;;;2.80;;
22441;SDS011;11388;54.456;9.752;2023-03-23T03:58:32;4.80;;;3.10;;
22441;SDS011;11388;54.456;9.752;2023-03-23T04:01:01;3.40;;;2.50;;
22441;SDS011;11388;54.456;9.752;2023-03-23T04:03:27;3.55;;;2.22;;
22441;SDS011;11388;54.456;9.752;2023-03-23T04:05:56;2.58;;;1.98;;
22441;SDS011;11388;54.456;9.752;2023-03-23T04:08:25;5.07;;;2.60;;
22441;SDS011;11388;54.456;9.752;2023-03-23T04:10:53;4.05;;;2.20;;
22441;SDS011;11388;54.456;9.752;2023-03-23T04:13:23;3.97;;;2.10;;
22441;SDS011;11388;54.456;9.752;2023-03-23T04:15:49;3.60;;;2.35;;
22441;SDS011;11388;54.456;9.752;2023-03-23T04:18:15;3.35;;;1.90;;
22441;SDS011;11388;54.456;9.752;2023-03-23T04:20:46;3.35;;;2.15;;
22441;SDS011;11388;54.456;9.752;2023-03-23T04:23:14;3.33;;;2.10;;
22441;SDS011;11388;54.456;9.752;2023-03-23T04:25:45;4.38;;;2.25;;
22441;SDS011;11388;54.456;9.752;2023-03-23T04:28:12;3.03;;;2.03;;
22441;SDS011;11388;54.456;9.752;2023-03-23T04:30:38;3.75;;;2.10;;
22441;SDS011;11388;54.456;9.752;2023-03-23T04:33:08;2.67;;;1.83;;
22441;SDS011;11388;54.456;9.752;2023-03-23T04:35:39;2.40;;;1.77;;
22441;SDS011;11388;54.456;9.752;2023-03-23T04:38:06;2.90;;;1.60;;
22441;SDS011;11388;54.456;9.752;2023-03-23T04:40:36;3.22;;;1.80;;
22441;SDS011;11388;54.456;9.752;2023-03-23T04:43:05;2.80;;;1.63;;
22441;SDS011;11388;54.456;9.752;2023-03-23T04:45:32;2.90;;;1.65;;
22441;SDS011;11388;54.456;9.752;2023-03-23T04:47:59;2.38;;;1.30;;
22441;SDS011;11388;54.456;9.752;2023-03-23T04:50:29;2.60;;;1.70;;
22441;SDS011;11388;54.456;9.752;2023-03-23T04:52:58;3.03;;;1.40;;
22441;SDS011;11388;54.456;9.752;2023-03-23T04:55:28;2.22;;;1.27;;
22441;SDS011;11388;54.456;9.752;2023-03-23T04:58:07;2.47;;;1.17;;
22441;SDS011;11388;54.456;9.752;2023-03-23T05:00:39;2.10;;;1.05;;
22441;SDS011;11388;54.456;9.752;2023-03-23T05:03:09;2.28;;;1.27;;
22441;SDS011;11388;54.456;9.752;2023-03-23T05:05:41;2.85;;;1.02;;
22441;SDS011;11388;54.456;9.752;2023-03-23T05:08:07;3.47;;;1.27;;
22441;SDS011;11388;54.456;9.752;2023-03-23T05:10:36;2.92;;;1.05;;
22441;SDS011;11388;54.456;9.752;2023-03-23T05:13:05;1.95;;;0.90;;
22441;SDS011;11388;54.456;9.752;2023-03-23T05:15:31;1.92;;;1.20;;
22441;SDS011;11388;54.456;9.752;2023-03-23T05:17:57;3.08;;;1.20;;
22441;SDS011;11388;54.456;9.752;2023-03-23T05:20:23;2.40;;;1.40;;
22441;SDS011;11388;54.456;9.752;2023-03-23T05:22:57;2.25;;;1.40;;
22441;SDS011;11388;54.456;9.752;2023-03-23T05:25:23;1.92;;;1.30;;
22441;SDS011;11388;54.456;9.752;2023-03-23T05:27:51;3.03;;;1.50;;
22441;SDS011;11388;54.456;9.752;2023-03-23T05:30:18;3.00;;;1.90;;
22441;SDS011;11388;54.456;9.752;2023-03-23T05:32:46;2.53;;;1.90;;
22441;SDS011;11388;54.456;9.752;2023-03-23T05:35:16;4.07;;;2.53;;
22441;SDS011;11388;54.456;9.752;2023-03-23T05:37:43;3.03;;;2.70;;
22441;SDS011;11388;54.456;9.752;2023-03-23T05:40:10;4.47;;;2.88;;
22441;SDS011;11388;54.456;9.752;2023-03-23T05:42:37;4.40;;;3.22;;
22441;SDS011;11388;54.456;9.752;2023-03-23T05:45:06;3.83;;;3.28;;
22441;SDS011;11388;54.456;9.752;2023-03-23T05:47:33;5.30;;;3.95;;
22441;SDS011;11388;54.456;9.752;2023-03-23T05:49:59;4.75;;;4.00;;
22441;SDS011;11388;54.456;9.752;2023-03-23T05:52:26;5.18;;;4.05;;
22441;SDS011;11388;54.456;9.752;2023-03-23T05:54:52;6.03;;;4.82;;
22441;SDS011;11388;54.456;9.752;2023-03-23T05:57:17;6.80;;;5.63;;
22441;SDS011;11388;54.456;9.752;2023-03-23T05:59:46;7.57;;;5.57;;
22441;SDS011;11388;54.456;9.752;2023-03-23T06:02:13;8.35;;;6.55;;
22441;SDS011;11388;54.456;9.752;2023-03-23T06:04:39;8.95;;;7.20;;
22441;SDS011;11388;54.456;9.752;2023-03-23T06:07:08;7.72;;;6.85;;
22441;SDS011;11388;54.456;9.752;2023-03-23T06:09:38;8.23;;;7.35;;
22441;SDS011;11388;54.456;9.752;2023-03-23T06:12:09;9.13;;;8.02;;
22441;SDS011;11388;54.456;9.752;2023-03-23T06:14:41;10.18;;;7.78;;
22441;SDS011;11388;54.456;9.752;2023-03-23T06:17:10;9.20;;;8.00;;
22441;SDS011;11388;54.456;9.752;2023-03-23T06:22:35;9.45;;;7.55;;
22441;SDS011;11388;54.456;9.752;2023-03-23T06:25:18;8.70;;;6.80;;
22441;SDS011;11388;54.456;9.752;2023-03-23T06:27:44;9.60;;;7.10;;
22441;SDS011;11388;54.456;9.752;2023-03-23T06:30:11;8.25;;;6.50;;
22441;SDS011;11388;54.456;9.752;2023-03-23T06:32:39;8.80;;;6.80;;
22441;SDS011;11388;54.456;9.752;2023-03-23T06:35:06;8.07;;;6.22;;
22441;SDS011;11388;54.456;9.752;2023-03-23T06:37:36;7.97;;;5.88;;
22441;SDS011;11388;54.456;9.752;2023-03-23T06:40:05;9.73;;;7.05;;
22441;SDS011;11388;54.456;9.752;2023-03-23T06:42:32;9.85;;;5.90;;
22441;SDS011;11388;54.456;9.752;2023-03-23T06:44:58;7.60;;;5.93;;
22441;SDS011;11388;54.456;9.752;2023-03-23T06:47:27;7.63;;;5.38;;
22441;SDS011;11388;54.456;9.752;2023-03-23T06:49:58;7.25;;;5.50;;
22441;SDS011;11388;54.456;9.752;2023-03-23T06:52:27;6.63;;;5.32;;
22441;SDS011;11388;54.456;9.752;2023-03-23T06:54:53;5.95;;;4.80;;
22441;SDS011;11388;54.456;9.752;2023-03-23T06:57:22;6.90;;;5.45;;
22441;SDS011;11388;54.456;9.752;2023-03-23T06:59:59;7.32;;;4.70;;
22441;SDS011;11388;54.456;9.752;2023-03-23T07:02:33;6.70;;;4.55;;
22441;SDS011;11388;54.456;9.752;2023-03-23T07:05:12;6.50;;;4.80;;
22441;SDS011;11388;54.456;9.752;2023-03-23T07:07:40;6.05;;;4.50;;
22441;SDS011;11388;54.456;9.752;2023-03-23T07:10:07;5.97;;;3.97;;
22441;SDS011;11388;54.456;9.752;2023-03-23T07:12:35;6.72;;;4.32;;
22441;SDS011;11388;54.456;9.752;2023-03-23T07:15:04;6.85;;;3.83;;
22441;SDS011;11388;54.456;9.752;2023-03-23T07:17:33;6.85;;;4.00;;
22441;SDS011;11388;54.456;9.752;2023-03-23T07:20:06;8.68;;;4.20;;
22441;SDS011;11388;54.456;9.752;2023-03-23T07:22:35;6.20;;;3.40;;
22441;SDS011;11388;54.456;9.752;2023-03-23T07:25:09;5.45;;;3.15;;
22441;SDS011;11388;54.456;9.752;2023-03-23T07:27:38;5.78;;;3.30;;
22441;SDS011;11388;54.456;9.752;2023-03-23T07:30:12;4.28;;;3.15;;
22441;SDS011;11388;54.456;9.752;2023-03-23T07:32:48;6.82;;;2.97;;
22441;SDS011;11388;54.456;9.752;2023-03-23T07:38:33;5.28;;;2.70;;
22441;SDS011;11388;54.456;9.752;2023-03-23T07:41:13;3.55;;;2.35;;
22441;SDS011;11388;54.456;9.752;2023-03-23T07:44:02;5.30;;;2.40;;
22441;SDS011;11388;54.456;9.752;2023-03-23T07:46:32;5.20;;;2.47;;
22441;SDS011;11388;54.456;9.752;2023-03-23T07:49:01;4.78;;;2.50;;
22441;SDS011;11388;54.456;9.752;2023-03-23T07:51:31;4.88;;;2.28;;
22441;SDS011;11388;54.456;9.752;2023-03-23T07:54:05;5.85;;;2.38;;
22441;SDS011;11388;54.456;9.752;2023-03-23T07:56:41;9.07;;;2.35;;
22441;SDS011;11388;54.456;9.752;2023-03-23T07:59:12;4.85;;;2.10;;
22441;SDS011;11388;54.456;9.752;2023-03-23T08:01:44;5.65;;;2.05;;
22441;SDS011;11388;54.456;9.752;2023-03-23T08:04:09;4.72;;;1.92;;
22441;SDS011;11388;54.456;9.752;2023-03-23T08:06:43;5.30;;;1.92;;
22441;SDS011;11388;54.456;9.752;2023-03-23T08:14:37;5.78;;;1.70;;
22441;SDS011;11388;54.456;9.752;2023-03-23T08:17:13;5.15;;;1.60;;
22441;SDS011;11388;54.456;9.752;2023-03-23T08:19:47;6.68;;;1.73;;
22441;SDS011;11388;54.456;9.752;2023-03-23T08:22:12;4.93;;;1.60;;
22441;SDS011;11388;54.456;9.752;2023-03-23T08:24:41;9.68;;;1.83;;
22441;SDS011;11388;54.456;9.752;2023-03-23T08:27:13;6.70;;;1.80;;
22441;SDS011;11388;54.456;9.752;2023-03-23T08:29:44;6.07;;;1.60;;
22441;SDS011;11388;54.456;9.752;2023-03-23T08:32:21;4.80;;;1.48;;
22441;SDS011;11388;54.456;9.752;2023-03-23T08:34:54;8.35;;;1.85;;
22441;SDS011;11388;54.456;9.752;2023-03-23T08:37:23;8.60;;;1.60;;
22441;SDS011;11388;54.456;9.752;2023-03-23T08:46:17;8.98;;;1.90;;
22441;SDS011;11388;54.456;9.752;2023-03-23T08:52:27;9.52;;;1.70;;
22441;SDS011;11388;54.456;9.752;2023-03-23T08:55:14;6.70;;;1.90;;
22441;SDS011;11388;54.456;9.752;2023-03-23T08:57:46;10.05;;;2.40;;
